Time;durP1;ratioP1;P1;durP2;ratioP2;P2;SDS_P1;SDS_P2;PMS_P1;PMS_P2;Temp;Humidity;BMP_temperature;BMP_pressure;BME280_temperature;BME280_humidity;BME280_pressure;Samples;Min_cycle;Max_cycle;Signal;HPM_P1;HPM_P2
2022/07/02 00:01:21;;;;;;;12.57;8.15;;;;;;;27.58;100.00;101029.56;5076370;28;20076;-75
2022/07/02 00:04:12;;;;;;;12.05;8.57;;;;;;;27.45;100.00;101028.88;5055400;28;20132;-77
2022/07/02 00:06:58;;;;;;;13.77;8.35;;;;;;;27.31;100.00;101023.75;5036943;28;20343;-78
2022/07/02 00:09:44;;;;;;;12.68;8.10;;;;;;;27.26;100.00;101024.16;5038167;28;20037;-76
2022/07/02 00:12:29;;;;;;;14.32;7.90;;;;;;;27.54;100.00;101022.72;5042768;28;20025;-77
2022/07/02 00:15:16;;;;;;;8.80;7.90;;;;;;;27.75;100.00;101028.16;5035605;28;20021;-77
2022/07/02 00:18:03;;;;;;;9.27;7.60;;;;;;;27.63;100.00;101016.56;5037467;28;20053;-79
2022/07/02 00:20:49;;;;;;;12.85;8.00;;;;;;;27.06;100.00;101019.50;5049308;28;20021;-78
2022/07/02 00:23:34;;;;;;;12.00;7.90;;;;;;;27.08;100.00;101022.91;5043273;28;20082;-77
2022/07/02 00:26:28;;;;;;;11.15;8.68;;;;;;;27.14;100.00;101021.56;5051236;28;20025;-77
2022/07/02 00:29:19;;;;;;;15.20;8.40;;;;;;;27.36;100.00;101022.41;5053434;28;20029;-76
2022/07/02 00:32:05;;;;;;;11.98;9.68;;;;;;;27.43;100.00;101017.38;5050332;28;20060;-79
2022/07/02 00:34:51;;;;;;;11.45;8.07;;;;;;;27.21;100.00;101014.75;5056904;28;20040;-76
2022/07/02 00:37:37;;;;;;;11.30;7.43;;;;;;;27.46;100.00;101011.75;5054070;28;20032;-77
2022/07/02 00:40:25;;;;;;;13.80;7.53;;;;;;;27.20;100.00;101026.47;5042079;28;20025;-78
2022/07/02 00:43:11;;;;;;;12.15;7.70;;;;;;;27.21;100.00;101020.97;5038586;28;20063;-77
2022/07/02 00:45:59;;;;;;;8.75;7.38;;;;;;;27.58;100.00;101009.84;5038248;28;20029;-77
2022/07/02 00:48:45;;;;;;;10.88;7.53;;;;;;;27.26;100.00;101016.09;5037911;28;20025;-76
2022/07/02 00:51:33;;;;;;;11.43;7.70;;;;;;;27.09;100.00;101008.47;5038274;28;20086;-77
2022/07/02 00:54:19;;;;;;;8.90;7.88;;;;;;;27.35;100.00;101009.06;5038332;28;20128;-78
2022/07/02 00:57:06;;;;;;;12.63;8.07;;;;;;;27.50;100.00;101007.81;5037495;28;20354;-78
2022/07/02 00:59:52;;;;;;;12.93;7.35;;;;;;;27.29;100.00;101006.91;5038424;28;20036;-77
2022/07/02 01:02:40;;;;;;;15.73;8.68;;;;;;;27.27;100.00;101003.47;5037922;28;20472;-78
2022/07/02 01:05:25;;;;;;;11.23;8.50;;;;;;;27.26;100.00;101016.09;5038016;28;20072;-77
2022/07/02 01:11:18;;;;;;;12.55;8.80;;;;;;;27.17;100.00;101026.72;5037477;28;20117;-77
2022/07/02 01:14:04;;;;;;;11.98;8.52;;;;;;;27.22;100.00;101027.22;5036361;28;20035;-78
2022/07/02 01:16:50;;;;;;;11.77;8.48;;;;;;;26.84;100.00;101024.88;5036945;28;20417;-77
2022/07/02 01:19:36;;;;;;;14.55;8.77;;;;;;;26.86;100.00;101016.69;5037285;28;20084;-77
2022/07/02 01:22:24;;;;;;;12.07;8.50;;;;;;;26.97;100.00;101020.22;5036502;28;20424;-77
2022/07/02 01:25:10;;;;;;;13.80;9.25;;;;;;;26.91;100.00;101026.13;5036864;28;20040;-77
2022/07/02 01:27:56;;;;;;;12.07;8.98;;;;;;;26.86;100.00;101022.06;5036408;28;20472;-79
2022/07/02 01:30:42;;;;;;;14.55;9.20;;;;;;;26.80;100.00;101027.97;5036437;28;20373;-78
2022/07/02 01:33:28;;;;;;;12.15;8.88;;;;;;;26.86;100.00;101022.06;5036413;28;20029;-78
2022/07/02 01:36:13;;;;;;;11.15;8.60;;;;;;;26.88;100.00;101030.91;5036272;28;20021;-78
2022/07/02 01:38:59;;;;;;;10.35;6.82;;;;;;;26.40;100.00;101021.28;5036480;28;20017;-78
2022/07/02 01:41:45;;;;;;;8.50;7.57;;;;;;;26.71;100.00;101026.84;5036152;28;20036;-78
2022/07/02 01:44:31;;;;;;;10.05;7.18;;;;;;;26.33;100.00;101028.09;5036457;28;20394;-78
2022/07/02 01:47:17;;;;;;;10.98;7.43;;;;;;;26.64;100.00;101022.09;5036487;28;20025;-78
2022/07/02 01:50:03;;;;;;;11.45;7.20;;;;;;;26.23;100.00;101024.41;5037339;28;20021;-78
2022/07/02 01:52:51;;;;;;;9.77;7.10;;;;;;;26.25;100.00;101031.41;5036408;28;20029;-77
2022/07/02 01:55:36;;;;;;;8.32;6.30;;;;;;;26.17;100.00;101032.94;5036435;28;20025;-77
2022/07/02 01:58:22;;;;;;;11.55;6.68;;;;;;;26.06;100.00;101040.97;5036064;28;20029;-77
2022/07/02 02:01:08;;;;;;;8.15;7.10;;;;;;;26.42;100.00;101032.75;5036785;28;20025;-77
2022/07/02 02:03:53;;;;;;;10.48;6.55;;;;;;;26.52;100.00;101045.34;5050882;28;20049;-78
2022/07/02 02:06:40;;;;;;;12.85;7.00;;;;;;;26.62;100.00;101045.53;5076333;28;20097;-78
2022/07/02 02:09:25;;;;;;;7.93;7.13;;;;;;;26.31;100.00;101043.47;5075770;28;20028;-78
2022/07/02 02:12:11;;;;;;;13.38;7.40;;;;;;;26.11;100.00;101049.53;5075268;28;20032;-78
2022/07/02 02:14:57;;;;;;;13.18;7.28;;;;;;;26.18;100.00;101061.53;5075588;28;20521;-78
2022/07/02 02:17:43;;;;;;;10.48;7.50;;;;;;;25.90;100.00;101064.56;5075989;28;20036;-78
2022/07/02 02:20:28;;;;;;;9.45;6.80;;;;;;;26.23;100.00;101048.59;5075529;28;20119;-78
2022/07/02 02:23:14;;;;;;;7.68;6.90;;;;;;;26.48;100.00;101057.31;5075497;28;20382;-77
2022/07/02 02:26:00;;;;;;;8.82;7.10;;;;;;;26.13;100.00;101059.22;5075725;28;20448;-77
2022/07/02 02:28:46;;;;;;;9.48;6.68;;;;;;;26.32;100.00;101058.66;5074502;28;20103;-77
2022/07/02 02:31:32;;;;;;;10.80;7.63;;;;;;;26.40;100.00;101061.59;5076182;28;20373;-76
2022/07/02 02:34:18;;;;;;;11.20;7.18;;;;;;;25.97;100.00;101058.66;5075261;28;20093;-77
2022/07/02 02:37:04;;;;;;;8.30;6.70;;;;;;;25.80;100.00;101060.84;5074921;28;20122;-78
2022/07/02 02:39:50;;;;;;;8.95;7.30;;;;;;;26.23;100.00;101065.56;5059891;28;20445;-78
2022/07/02 02:42:36;;;;;;;12.63;8.05;;;;;;;26.21;100.00;101080.09;5060066;28;20028;-77
2022/07/02 02:45:21;;;;;;;10.13;7.35;;;;;;;26.11;100.00;101074.56;5060945;28;20024;-78
2022/07/02 02:48:07;;;;;;;13.43;7.45;;;;;;;25.84;100.00;101076.59;5075255;28;20406;-79
2022/07/02 02:50:53;;;;;;;12.15;7.90;;;;;;;26.19;100.00;101082.03;5074651;28;20434;-76
2022/07/02 02:53:42;;;;;;;12.05;8.10;;;;;;;25.77;100.00;101080.75;5075856;28;20028;-77
2022/07/02 02:56:27;;;;;;;14.25;8.38;;;;;;;25.44;100.00;101083.19;5075111;28;20040;-76
2022/07/02 02:59:13;;;;;;;11.55;8.00;;;;;;;25.90;100.00;101083.34;5061164;28;20094;-77
2022/07/02 03:01:59;;;;;;;9.07;7.75;;;;;;;26.01;100.00;101075.38;5074384;28;20028;-76
2022/07/02 03:04:45;;;;;;;11.15;7.50;;;;;;;25.89;100.00;101081.66;5073707;28;20080;-78
2022/07/02 03:07:31;;;;;;;7.90;7.10;;;;;;;25.76;100.00;101080.84;5074677;28;20024;-79
2022/07/02 03:10:16;;;;;;;11.43;7.45;;;;;;;25.60;100.00;101081.09;5059150;28;20021;-79
2022/07/02 03:13:02;;;;;;;9.68;7.40;;;;;;;25.59;100.00;101086.63;5074994;28;20052;-78
2022/07/02 03:15:48;;;;;;;11.98;7.53;;;;;;;25.83;100.00;101077.59;5074057;28;20097;-79
2022/07/02 03:18:34;;;;;;;10.50;8.05;;;;;;;25.75;100.00;101081.78;5074697;28;20101;-78
2022/07/02 03:21:20;;;;;;;11.82;7.82;;;;;;;25.55;100.00;101087.81;5059244;28;20020;-79
2022/07/02 03:24:06;;;;;;;12.40;7.85;;;;;;;25.71;100.00;101088.38;5073739;28;20036;-77
2022/07/02 03:26:51;;;;;;;8.30;7.30;;;;;;;25.87;100.00;101088.94;5073726;28;20028;-77
2022/07/02 03:29:37;;;;;;;9.77;7.72;;;;;;;25.79;100.00;101092.22;5074495;28;20024;-77
2022/07/02 03:32:25;;;;;;;10.48;7.28;;;;;;;25.69;100.00;101093.00;5073806;28;20472;-77
2022/07/02 03:35:11;;;;;;;9.68;7.68;;;;;;;25.71;100.00;101097.28;5073657;28;20024;-78
2022/07/02 03:37:56;;;;;;;9.80;7.70;;;;;;;25.84;100.00;101097.25;5073872;28;20086;-78
2022/07/02 03:40:42;;;;;;;13.63;8.32;;;;;;;25.59;100.00;101108.94;5073642;28;20051;-77
2022/07/02 03:43:28;;;;;;;10.05;7.68;;;;;;;25.65;100.00;101108.50;5060185;28;20361;-78
2022/07/02 03:46:16;;;;;;;9.70;7.45;;;;;;;26.19;100.00;101099.03;5073905;28;20036;-77
2022/07/02 03:49:02;;;;;;;10.88;7.10;;;;;;;25.84;100.00;101110.66;5073896;28;20028;-77
2022/07/02 03:51:51;;;;;;;9.82;7.78;;;;;;;26.37;100.00;101099.44;5058971;28;20453;-78
2022/07/02 03:54:42;;;;;;;10.63;7.72;;;;;;;26.43;100.00;101105.22;5077762;28;20116;-77
2022/07/02 03:57:49;;;;;;;9.40;7.47;;;;;;;26.65;100.00;101107.13;5078260;28;20162;-78
2022/07/02 04:00:35;;;;;;;13.27;7.20;;;;;;;26.32;100.00;101104.31;5078578;28;20079;-77
2022/07/02 04:03:28;;;;;;;9.10;8.20;;;;;;;26.39;100.00;101103.72;5062588;28;20048;-77
2022/07/02 04:06:14;;;;;;;10.25;7.93;;;;;;;26.49;100.00;101106.56;5089607;28;20029;-75
2022/07/02 04:08:59;;;;;;;10.60;7.93;;;;;;;26.81;100.00;101121.09;5094087;28;20039;-73
2022/07/02 04:11:52;;;;;;;8.35;7.50;;;;;;;26.68;100.00;101123.03;5074309;28;20029;-78
2022/07/02 04:14:38;;;;;;;10.90;7.35;;;;;;;26.94;100.00;101129.91;5094735;28;20027;-72
2022/07/02 04:17:24;;;;;;;13.25;8.00;;;;;;;26.95;100.00;101126.22;5087319;28;20025;-73
2022/07/02 04:20:17;;;;;;;10.52;8.15;;;;;;;26.97;100.00;101130.50;5091673;28;20035;-77
2022/07/02 04:23:03;;;;;;;8.52;7.40;;;;;;;26.92;100.00;101127.34;5081716;28;20071;-72
2022/07/02 04:25:49;;;;;;;11.90;7.55;;;;;;;26.79;100.00;101133.78;5085722;28;20036;-78
2022/07/02 04:28:35;;;;;;;10.60;8.18;;;;;;;26.77;100.00;101133.91;5077724;28;20379;-78
2022/07/02 04:31:20;;;;;;;11.20;8.82;;;;;;;26.69;100.00;101144.38;5077074;28;20108;-77
2022/07/02 04:34:06;;;;;;;9.88;8.55;;;;;;;26.63;100.00;101144.88;5062938;28;20423;-78
2022/07/02 04:36:52;;;;;;;11.98;9.13;;;;;;;26.52;100.00;101152.03;5077047;28;20024;-77
2022/07/02 04:39:38;;;;;;;10.95;8.35;;;;;;;26.74;100.00;101149.44;5077077;28;20036;-78
2022/07/02 04:42:23;;;;;;;11.10;8.13;;;;;;;26.94;100.00;101152.28;5077303;28;20492;-77
2022/07/02 04:45:09;;;;;;;13.38;8.70;;;;;;;27.03;100.00;101154.25;5076472;28;20024;-77
2022/07/02 04:47:55;;;;;;;11.07;8.50;;;;;;;27.17;100.00;101161.22;5076131;28;20090;-78
2022/07/02 04:50:41;;;;;;;15.48;9.05;;;;;;;27.21;100.00;101168.13;5077276;28;20028;-77
2022/07/02 04:53:27;;;;;;;10.63;8.32;;;;;;;27.10;100.00;101166.25;5062781;28;20063;-79
2022/07/02 04:56:13;;;;;;;13.50;8.50;;;;;;;27.32;100.00;101158.19;5078524;28;20125;-76
2022/07/02 04:58:58;;;;;;;13.60;8.80;;;;;;;27.36;100.00;101156.09;5089122;28;20080;-76
2022/07/02 05:01:44;;;;;;;11.55;9.55;;;;;;;27.80;100.00;101161.44;5090745;28;20028;-75
2022/07/02 05:04:30;;;;;;;13.98;8.38;;;;;;;27.79;100.00;101158.88;5090964;28;20055;-76
2022/07/02 05:07:16;;;;;;;8.40;7.50;;;;;;;27.60;100.00;101164.91;5091780;28;20039;-76
2022/07/02 05:10:02;;;;;;;11.88;7.13;;;;;;;27.79;100.00;101164.25;5091753;28;20025;-77
2022/07/02 05:12:48;;;;;;;11.73;7.18;;;;;;;27.78;100.00;101163.44;5093660;28;20028;-76
2022/07/02 05:15:33;;;;;;;11.50;7.57;;;;;;;28.10;100.00;101160.81;5091510;28;20020;-75
2022/07/02 05:18:19;;;;;;;8.68;7.20;;;;;;;27.92;100.00;101168.56;5092976;28;20012;-77
2022/07/02 05:21:05;;;;;;;11.60;8.80;;;;;;;28.19;100.00;101174.38;5064180;28;20529;-78
2022/07/02 05:23:51;;;;;;;10.57;8.10;;;;;;;28.21;100.00;101174.25;5062765;28;20100;-78
2022/07/02 05:26:37;;;;;;;12.13;8.40;;;;;;;28.50;100.00;101170.00;5078161;28;20071;-77
2022/07/02 05:29:22;;;;;;;10.70;8.85;;;;;;;28.44;100.00;101175.91;5076946;28;20105;-77
2022/07/02 05:32:08;;;;;;;12.65;8.30;;;;;;;28.52;100.00;101178.81;5077931;28;20028;-79
2022/07/02 05:34:54;;;;;;;9.50;7.85;;;;;;;28.76;100.00;101179.44;5089763;28;20024;-77
2022/07/02 05:37:40;;;;;;;14.90;8.07;;;;;;;28.66;100.00;101178.47;5080601;28;20016;-77
2022/07/02 05:40:26;;;;;;;17.42;9.27;;;;;;;28.83;100.00;101185.97;5093886;28;20033;-75
2022/07/02 05:43:12;;;;;;;14.27;9.27;;;;;;;28.74;100.00;101192.19;5094266;28;20052;-77
2022/07/02 05:45:57;;;;;;;13.60;10.00;;;;;;;28.97;100.00;101200.00;5094006;28;20095;-76
2022/07/02 05:48:43;;;;;;;15.43;10.00;;;;;;;28.55;100.00;101187.50;5078016;28;20028;-77
2022/07/02 05:51:29;;;;;;;14.18;10.23;;;;;;;28.70;100.00;101186.19;5078734;28;20017;-77
2022/07/02 05:54:14;;;;;;;13.85;10.00;;;;;;;28.81;100.00;101193.38;5093980;28;20465;-76
2022/07/02 05:57:00;;;;;;;16.58;9.65;;;;;;;29.10;100.00;101189.91;5086330;28;20025;-78
2022/07/02 05:59:46;;;;;;;19.20;10.02;;;;;;;29.12;100.00;101203.25;5078417;28;20020;-77
2022/07/02 06:02:32;;;;;;;12.88;9.65;;;;;;;29.45;100.00;101198.44;5076991;28;20445;-78
2022/07/02 06:08:22;;;;;;;15.77;10.60;;;;;;;28.84;100.00;101195.78;5076931;28;20040;-78
2022/07/02 06:11:08;;;;;;;16.15;11.25;;;;;;;29.18;100.00;101200.03;5061641;28;20021;-78
2022/07/02 06:13:54;;;;;;;16.33;11.00;;;;;;;29.20;100.00;101201.59;5062319;28;20063;-79
2022/07/02 06:16:40;;;;;;;16.73;11.10;;;;;;;29.44;100.00;101201.28;5082618;28;20024;-78
2022/07/02 06:19:26;;;;;;;12.73;10.50;;;;;;;29.66;100.00;101199.28;5089398;28;20025;-78
2022/07/02 06:22:12;;;;;;;19.92;10.40;;;;;;;29.88;100.00;101198.22;5092360;28;20017;-78
2022/07/02 06:24:57;;;;;;;15.25;10.90;;;;;;;29.88;100.00;101204.47;5091204;28;20043;-78
2022/07/02 06:27:43;;;;;;;20.10;10.30;;;;;;;30.06;100.00;101202.81;5091581;28;20074;-77
2022/07/02 06:30:29;;;;;;;17.17;9.90;;;;;;;30.42;100.00;101204.88;5091318;28;20354;-78
2022/07/02 06:33:15;;;;;;;12.00;10.48;;;;;;;30.70;100.00;101208.63;5090648;28;20357;-78
2022/07/02 06:36:00;;;;;;;14.18;10.48;;;;;;;30.89;100.00;101203.19;5092815;28;20089;-80
2022/07/02 06:38:48;;;;;;;14.27;10.45;;;;;;;30.79;100.00;101205.88;5089771;28;20067;-76
2022/07/02 06:44:38;;;;;;;17.27;11.18;;;;;;;31.01;100.00;101205.59;5089917;28;20032;-77
2022/07/02 06:47:24;;;;;;;12.85;10.13;;;;;;;30.91;100.00;101212.03;5077962;28;20127;-77
2022/07/02 06:50:11;;;;;;;13.80;10.93;;;;;;;31.16;100.00;101211.41;5075292;28;20052;-78
2022/07/02 06:52:57;;;;;;;11.95;9.20;;;;;;;31.17;100.00;101216.66;5074730;28;20158;-78
2022/07/02 06:55:42;;;;;;;11.13;8.93;;;;;;;31.74;100.00;101222.91;5075351;28;20031;-77
2022/07/02 06:58:28;;;;;;;14.40;9.27;;;;;;;31.74;100.00;101212.06;5076051;28;20033;-77
2022/07/02 07:01:14;;;;;;;12.93;9.23;;;;;;;31.67;100.00;101208.25;5079707;28;20028;-77
2022/07/02 07:04:00;;;;;;;10.27;8.82;;;;;;;31.87;100.00;101215.31;5079270;28;20419;-78
2022/07/02 07:06:53;;;;;;;10.63;7.55;;;;;;;31.61;90.22;101214.28;5079783;28;20024;-77
2022/07/02 07:09:39;;;;;;;13.68;7.97;;;;;;;31.26;89.95;101214.97;5078136;28;20028;-77
2022/07/02 07:12:25;;;;;;;15.57;8.32;;;;;;;31.27;87.41;101225.63;5061483;28;20020;-78
2022/07/02 07:15:11;;;;;;;11.55;9.32;;;;;;;31.75;95.12;101227.31;5075046;28;20025;-78
2022/07/02 07:17:56;;;;;;;14.55;9.75;;;;;;;31.97;96.57;101237.81;5074716;28;20338;-78
2022/07/02 07:20:42;;;;;;;12.85;9.02;;;;;;;32.34;88.29;101238.63;5060182;28;20357;-79
2022/07/02 07:23:28;;;;;;;14.52;9.50;;;;;;;32.41;89.19;101239.69;5074870;28;20090;-79
2022/07/02 07:26:14;;;;;;;12.95;9.38;;;;;;;32.31;90.46;101241.63;5074636;28;20032;-80
2022/07/02 07:29:03;;;;;;;11.20;8.88;;;;;;;32.31;89.58;101245.22;5074135;28;20035;-78
2022/07/02 07:31:48;;;;;;;10.85;8.65;;;;;;;32.65;87.09;101245.34;5074755;28;20035;-80
2022/07/02 07:34:34;;;;;;;9.43;8.43;;;;;;;32.79;85.80;101234.78;5073531;28;20579;-79
2022/07/02 07:37:20;;;;;;;11.40;6.03;;;;;;;33.06;59.54;101242.88;5075196;28;20170;-80
2022/07/02 07:40:07;;;;;;;11.93;5.90;;;;;;;33.02;59.02;101243.34;5078623;28;20105;-79
2022/07/02 07:42:53;;;;;;;11.30;5.45;;;;;;;33.61;56.03;101241.56;5074395;28;20029;-81
2022/07/02 07:45:39;;;;;;;7.25;5.72;;;;;;;33.55;51.16;101239.47;5073593;28;20420;-79
2022/07/02 07:48:25;;;;;;;7.32;5.15;;;;;;;33.77;50.41;101243.50;5074740;28;20017;-77
2022/07/02 07:51:11;;;;;;;6.85;5.38;;;;;;;33.84;48.67;101253.63;5073747;28;20056;-78
2022/07/02 07:53:57;;;;;;;9.30;4.93;;;;;;;33.67;47.94;101251.78;5074644;28;20107;-77
2022/07/02 07:56:43;;;;;;;5.68;4.78;;;;;;;33.66;47.31;101255.53;5059138;28;20325;-78
2022/07/02 07:59:29;;;;;;;8.40;4.68;;;;;;;34.08;46.06;101252.84;5073459;28;20020;-79
2022/07/02 08:02:15;;;;;;;7.63;4.78;;;;;;;34.43;44.37;101258.09;5059191;28;20044;-79
2022/07/02 08:05:01;;;;;;;9.43;4.68;;;;;;;33.93;44.79;101262.66;5073709;28;20052;-79
2022/07/02 08:07:47;;;;;;;6.72;5.82;;;;;;;34.73;45.05;101260.19;5073603;28;20124;-79
2022/07/02 08:10:33;;;;;;;8.45;5.72;;;;;;;34.88;44.46;101263.97;5073835;28;20025;-79
2022/07/02 08:13:20;;;;;;;6.82;5.00;;;;;;;35.33;43.49;101266.19;5063195;28;20031;-79
2022/07/02 08:16:06;;;;;;;8.23;5.65;;;;;;;35.33;45.27;101260.72;5075609;28;20035;-80
2022/07/02 08:18:52;;;;;;;6.63;5.05;;;;;;;35.05;43.77;101258.38;5060575;28;20055;-79
2022/07/02 08:21:38;;;;;;;6.38;5.13;;;;;;;34.67;43.46;101263.56;5073568;28;20368;-80
2022/07/02 08:24:27;;;;;;;10.85;5.28;;;;;;;34.98;45.18;101260.06;5059260;28;20024;-79
2022/07/02 08:27:13;;;;;;;6.60;5.07;;;;;;;35.64;42.67;101261.69;5074195;28;20032;-80
2022/07/02 08:29:58;;;;;;;6.38;4.50;;;;;;;35.58;42.46;101265.97;5074038;28;20029;-80
2022/07/02 08:32:44;;;;;;;9.88;5.30;;;;;;;35.60;42.55;101263.06;5059684;28;20029;-80
2022/07/02 08:35:31;;;;;;;7.97;5.40;;;;;;;36.10;42.16;101264.44;5060830;28;20033;-80
2022/07/02 08:38:16;;;;;;;5.18;4.65;;;;;;;35.70;41.53;101266.44;5060072;28;20024;-80
2022/07/02 08:41:02;;;;;;;6.90;4.70;;;;;;;35.94;42.35;101272.69;5077857;28;20032;-81
2022/07/02 08:43:53;;;;;;;6.07;5.10;;;;;;;36.31;41.30;101261.13;5078783;28;20349;-82
2022/07/02 08:46:41;;;;;;;6.05;5.10;;;;;;;35.91;42.01;101258.56;5076741;28;20039;-81
2022/07/02 08:49:32;;;;;;;12.73;5.70;;;;;;;36.19;41.55;101276.19;5077306;28;20356;-82
2022/07/02 08:52:19;;;;;;;11.95;5.15;;;;;;;36.34;41.95;101267.06;5077873;28;20063;-76
2022/07/02 08:55:05;;;;;;;5.72;5.07;;;;;;;36.50;41.02;101272.44;5080615;28;20044;-79
2022/07/02 08:57:52;;;;;;;6.07;4.85;;;;;;;36.63;40.69;101269.94;5077467;28;20334;-78
2022/07/02 09:00:38;;;;;;;9.40;5.00;;;;;;;36.90;40.44;101272.19;5077245;28;20035;-79
2022/07/02 09:03:24;;;;;;;7.65;5.50;;;;;;;36.07;41.35;101272.97;5076349;28;20037;-79
2022/07/02 09:06:10;;;;;;;5.53;4.90;;;;;;;35.60;41.80;101272.09;5081643;28;20032;-80
2022/07/02 09:08:57;;;;;;;8.40;5.20;;;;;;;36.02;40.40;101269.94;5077880;28;20025;-80
2022/07/02 09:11:43;;;;;;;5.82;4.72;;;;;;;36.72;40.27;101271.63;5077871;28;20047;-80
2022/07/02 09:14:32;;;;;;;7.03;4.97;;;;;;;36.49;39.12;101265.28;5078904;28;20029;-80
2022/07/02 09:17:18;;;;;;;6.38;4.90;;;;;;;36.24;38.82;101269.16;5078106;28;20029;-80
2022/07/02 09:20:05;;;;;;;6.10;4.70;;;;;;;36.47;39.87;101263.75;5062108;28;20376;-81
2022/07/02 09:22:52;;;;;;;7.45;5.38;;;;;;;36.72;38.62;101260.69;5079222;28;20080;-82
2022/07/02 09:25:40;;;;;;;11.60;7.03;;;;;;;36.48;38.29;101268.19;5076664;28;20028;-74
2022/07/02 09:28:26;;;;;;;8.60;6.20;;;;;;;36.23;38.65;101272.94;5060964;28;20040;-75
2022/07/02 09:31:11;;;;;;;5.72;5.10;;;;;;;35.85;38.22;101278.34;5076689;28;20036;-76
2022/07/02 09:33:58;;;;;;;6.03;4.53;;;;;;;35.66;38.60;101265.06;5079711;28;20024;-81
2022/07/02 09:36:44;;;;;;;6.43;4.90;;;;;;;36.11;38.22;101260.69;5062957;28;20024;-80
2022/07/02 09:39:36;;;;;;;7.60;4.85;;;;;;;35.61;38.57;101257.44;5085699;28;20013;-77
2022/07/02 09:42:33;;;;;;;5.80;5.03;;;;;;;35.86;38.81;101263.69;5093187;28;20029;-79
2022/07/02 09:45:20;;;;;;;5.68;5.10;;;;;;;36.24;38.62;101254.69;5081106;28;20016;-78
2022/07/02 09:48:07;;;;;;;7.32;5.75;;;;;;;36.66;38.27;101257.81;5084840;28;20105;-80
2022/07/02 09:50:53;;;;;;;14.52;6.97;;;;;;;36.05;38.99;101257.81;5071830;28;20040;-79
2022/07/02 09:53:53;;;;;;;8.48;6.15;;;;;;;36.22;39.74;101253.97;5095939;28;20059;-79
2022/07/02 09:56:52;;;;;;;7.18;5.13;;;;;;;36.34;38.32;101260.75;5096021;28;20008;-79
2022/07/02 09:59:39;;;;;;;7.03;5.03;;;;;;;36.00;38.34;101260.22;5094205;28;20071;-80
2022/07/02 10:02:26;;;;;;;8.60;5.70;;;;;;;35.95;38.93;101251.72;5092494;28;20035;-79
2022/07/02 10:05:11;;;;;;;5.82;4.68;;;;;;;35.38;39.39;101259.19;5075056;28;20049;-79
2022/07/02 10:07:59;;;;;;;5.80;5.20;;;;;;;35.77;39.42;101251.97;5067274;28;20025;-81
2022/07/02 10:10:45;;;;;;;6.80;5.90;;;;;;;35.83;39.00;101251.25;5077103;28;20085;-79
2022/07/02 10:13:33;;;;;;;11.48;5.75;;;;;;;35.79;38.56;101258.09;5076628;28;20051;-80
2022/07/02 10:16:21;;;;;;;7.53;5.60;;;;;;;36.00;38.49;101252.03;5061112;28;20027;-80
2022/07/02 10:19:07;;;;;;;9.15;6.05;;;;;;;36.10;37.81;101253.53;5076090;28;20032;-80
2022/07/02 10:21:54;;;;;;;7.28;5.15;;;;;;;35.96;39.29;101250.69;5076382;28;20039;-81
2022/07/02 10:24:40;;;;;;;7.93;5.57;;;;;;;35.72;38.62;101251.63;5076158;28;20024;-80
2022/07/02 10:27:28;;;;;;;7.75;5.30;;;;;;;35.57;39.23;101241.59;5075329;28;20025;-81
2022/07/02 10:30:21;;;;;;;11.02;5.90;;;;;;;35.62;39.75;101242.78;5075623;28;20036;-81
2022/07/02 10:33:39;;;;;;;6.72;5.50;;;;;;;35.83;39.85;101245.78;5076412;28;20071;-80
2022/07/02 10:36:25;;;;;;;10.23;5.20;;;;;;;35.87;39.11;101244.41;5050351;28;20036;-80
2022/07/02 10:39:16;;;;;;;6.43;5.75;;;;;;;35.88;38.99;101235.22;5074954;28;20086;-80
2022/07/02 10:42:02;;;;;;;6.90;5.43;;;;;;;35.15;39.63;101230.91;5075560;28;20372;-80
2022/07/02 10:44:48;;;;;;;6.03;5.00;;;;;;;35.56;39.59;101245.34;5060412;28;20032;-80
2022/07/02 10:47:34;;;;;;;7.28;5.65;;;;;;;36.05;39.32;101238.72;5074303;28;20029;-79
2022/07/02 10:50:26;;;;;;;8.27;5.70;;;;;;;35.98;38.90;101238.56;5061006;28;20465;-79
2022/07/02 10:53:20;;;;;;;8.65;6.15;;;;;;;35.79;39.69;101235.44;5059349;28;20115;-80
2022/07/02 10:56:06;;;;;;;9.57;7.63;;;;;;;36.40;39.88;101239.03;5075031;28;20027;-80
2022/07/02 10:58:52;;;;;;;15.80;14.23;;;;;;;36.69;38.55;101214.66;5059331;28;20044;-80
2022/07/02 11:01:38;;;;;;;6.32;5.72;;;;;;;36.68;39.10;101223.84;5074417;28;20035;-81
2022/07/02 11:04:23;;;;;;;7.28;5.60;;;;;;;36.79;38.79;101217.97;5074184;28;20044;-79
2022/07/02 11:07:11;;;;;;;5.90;5.40;;;;;;;36.62;39.35;101230.03;5059670;28;20036;-80
2022/07/02 11:10:09;;;;;;;12.15;5.82;;;;;;;36.43;40.03;101216.84;5074041;28;20024;-80
2022/07/02 11:13:01;;;;;;;8.48;5.80;;;;;;;36.23;39.70;101222.97;5059137;28;20035;-79
2022/07/02 11:15:47;;;;;;;8.55;5.43;;;;;;;36.64;39.51;101210.72;5073820;28;20088;-80
2022/07/02 11:18:41;;;;;;;7.50;5.32;;;;;;;36.64;39.70;101211.56;5060974;28;20032;-80
2022/07/02 11:21:28;;;;;;;8.00;5.53;;;;;;;37.26;39.19;101221.31;5059779;28;20036;-80
2022/07/02 11:24:45;;;;;;;10.98;5.68;;;;;;;36.91;40.02;101216.50;5074376;28;20174;-79
2022/07/02 11:27:34;;;;;;;10.27;5.68;;;;;;;36.29;40.92;101219.50;5074342;28;20056;-80
2022/07/02 11:30:32;;;;;;;8.82;5.35;;;;;;;36.58;40.92;101209.56;5073343;28;20135;-79
2022/07/02 11:33:18;;;;;;;6.03;5.38;;;;;;;36.63;40.74;101204.41;5058900;28;20020;-79
2022/07/02 11:36:04;;;;;;;6.88;6.20;;;;;;;36.57;40.15;101215.22;5060774;28;20039;-81
2022/07/02 11:38:51;;;;;;;8.48;5.80;;;;;;;36.42;40.37;101212.41;5058889;28;20127;-81
2022/07/02 11:41:38;;;;;;;7.13;6.10;;;;;;;36.89;40.71;101210.38;5073998;28;20043;-82
2022/07/02 11:44:31;;;;;;;5.88;5.30;;;;;;;36.31;40.43;101221.00;5059409;28;20453;-82
2022/07/02 11:47:16;;;;;;;6.18;5.57;;;;;;;36.74;40.65;101227.72;5073530;28;20112;-81
2022/07/02 11:50:02;;;;;;;6.18;5.55;;;;;;;37.04;40.63;101221.34;5074732;28;20413;-81
2022/07/02 11:52:51;;;;;;;8.75;5.68;;;;;;;36.55;40.36;101214.53;5075797;28;20039;-80
2022/07/02 11:55:37;;;;;;;6.72;5.32;;;;;;;37.68;40.03;101227.00;5075011;28;20029;-80
2022/07/02 11:58:22;;;;;;;7.38;5.82;;;;;;;37.07;40.19;101219.06;5074057;28;20035;-79
2022/07/02 12:01:23;;;;;;;28.83;25.63;;;;;;;37.24;41.68;101212.44;5075203;28;20029;-77
2022/07/02 12:04:11;;;;;;;6.68;5.30;;;;;;;37.21;39.72;101204.59;5074669;28;20191;-75
2022/07/02 12:07:00;;;;;;;14.10;6.03;;;;;;;37.28;40.06;101205.56;5060621;28;20032;-76
2022/07/02 12:09:46;;;;;;;7.43;5.90;;;;;;;37.49;39.74;101205.66;5060022;28;20518;-76
2022/07/02 12:12:32;;;;;;;6.45;5.43;;;;;;;37.48;40.11;101214.06;5060719;28;20021;-76
2022/07/02 12:15:18;;;;;;;12.52;5.50;;;;;;;36.83;40.97;101200.16;5078077;28;20031;-76
2022/07/02 12:18:14;;;;;;;9.05;5.40;;;;;;;36.95;40.15;101198.69;5079516;28;20020;-75
2022/07/02 12:21:10;;;;;;;7.20;5.95;;;;;;;36.93;40.60;101198.03;5079932;28;20025;-76
2022/07/02 12:23:55;;;;;;;11.05;5.40;;;;;;;37.14;40.46;101200.06;5079925;28;20064;-76
2022/07/02 12:26:45;;;;;;;7.40;5.60;;;;;;;37.44;40.56;101197.16;5079262;28;20031;-75
2022/07/02 12:32:40;;;;;;;6.78;5.53;;;;;;;37.01;40.84;101189.75;5080124;28;20024;-76
2022/07/02 12:35:27;;;;;;;8.73;5.78;;;;;;;37.39;39.99;101205.09;5078559;28;20112;-75
2022/07/02 12:38:12;;;;;;;10.20;6.07;;;;;;;37.15;40.01;101186.22;5065421;28;20529;-76
2022/07/02 12:41:01;;;;;;;9.65;7.28;;;;;;;37.22;40.26;101192.66;5077991;28;20032;-76
2022/07/02 12:43:54;;;;;;;6.15;5.28;;;;;;;37.34;39.05;101191.16;5064147;28;20034;-75
2022/07/02 12:46:47;;;;;;;7.28;5.50;;;;;;;37.27;39.53;101190.19;5049542;28;20147;-75
2022/07/02 12:49:32;;;;;;;7.40;6.05;;;;;;;36.73;40.65;101191.41;5078148;28;20463;-74
2022/07/02 12:52:18;;;;;;;9.32;6.35;;;;;;;37.22;39.49;101187.19;5076597;28;20035;-75
2022/07/02 12:55:04;;;;;;;9.10;6.10;;;;;;;36.68;40.52;101191.06;5077716;28;20021;-75
2022/07/02 12:57:52;;;;;;;6.88;5.70;;;;;;;36.77;40.58;101192.72;5076637;28;20017;-75
2022/07/02 13:00:40;;;;;;;6.63;5.25;;;;;;;36.65;40.65;101188.69;5062191;28;20441;-75